CDT,Max TemperatureF,Mean TemperatureF,Min TemperatureF,Max Dew PointF,MeanDew PointF,Min DewpointF,Max Humidity, Mean Humidity, Min Humidity, Max Sea Level PressureIn, Mean Sea Level PressureIn, Min Sea Level PressureIn, Max VisibilityMiles, Mean VisibilityMiles, Min VisibilityMiles, Max Wind SpeedMPH, Mean Wind SpeedMPH, Max Gust SpeedMPH,PrecipitationIn, CloudCover, Events, WindDirDegrees
2012-3-1,44,32,20,30,25,19,92,77,62,29.88,29.79,29.70,10,8,4,17,6,22,T,3,Rain,22
2012-3-2,43,35,26,27,21,16,92,67,41,29.94,29.85,29.75,10,10,10,30,14,44,T,2,,296
2012-3-3,41,32,22,21,18,15,77,59,40,30.01,29.96,29.92,10,10,10,24,12,31,0.00,2,,306
2012-3-4,50,36,22,33,23,18,88,63,37,30.21,29.99,29.84,10,10,10,41,13,53,0.00,3,,319
2012-3-5,59,39,19,32,23,17,84,57,30,30.24,30.03,29.73,10,10,10,29,13,38,0.00,0,,190
2012-3-6,75,56,37,48,34,28,70,45,19,29.69,29.58,29.48,10,10,10,28,16,37,0.00,0,,186
2012-3-7,58,44,29,49,30,20,85,72,59,30.19,29.79,29.44,10,9,6,32,18,39,0.00,6,,324
2012-3-8,51,37,22,19,16,11,81,51,20,30.46,30.36,30.23,10,10,10,26,11,31,0.00,0,,287
2012-3-9,66,45,23,24,19,14,88,51,13,30.56,30.39,30.17,10,10,10,25,12,32,0.00,0,,174
2012-3-10,70,53,36,25,18,11,44,28,12,30.16,30.05,29.95,10,10,10,36,20,44,0.00,0,,202
2012-3-11,50,46,41,45,39,25,93,66,39,29.98,29.82,29.67,10,8,1,20,11,23,0.16,6,Rain,165
2012-3-12,74,57,40,44,40,31,96,59,22,29.95,29.72,29.60,10,8,2,22,9,28,T,3,Rain,209
2012-3-13,80,59,37,45,39,34,92,55,18,29.96,29.85,29.70,10,10,5,28,12,36,0.00,0,,152
2012-3-14,72,56,39,45,37,30,89,57,25,29.96,29.82,29.68,10,10,10,20,8,24,0.00,0,,310
2012-3-15,78,56,34,51,39,30,89,61,33,30.01,29.95,29.88,10,9,5,15,5,20,0.00,0,,202
2012-3-16,84,61,37,56,44,33,79,52,24,29.94,29.83,29.71,10,9,7,21,8,25,0.00,0,,172
2012-3-17,84,73,62,61,57,51,90,62,34,29.73,29.68,29.58,10,9,6,28,18,36,0.00,4,,170
2012-3-18,84,74,64,59,57,53,78,58,37,29.67,29.60,29.53,10,10,10,33,24,44,0.00,4,,174
2012-3-19,68,60,52,59,55,49,89,79,68,29.63,29.58,29.53,10,8,1,26,15,36,0.18,6,Rain-Thunderstorm,168
2012-3-20,57,52,46,49,45,38,93,72,51,29.90,29.78,29.65,10,10,8,17,8,21,T,6,Rain,243
2012-3-21,64,57,50,56,50,45,93,77,60,29.99,29.93,29.86,10,7,1,20,9,24,0.04,8,Rain,31
2012-3-22,63,52,41,56,49,38,93,66,39,29.95,29.90,29.86,10,8,2,17,7,22,0.15,5,Rain,136
2012-3-23,71,55,38,44,39,34,92,59,26,30.00,29.94,29.90,10,8,4,10,2,14,0.00,0,,278
2012-3-24,81,59,37,48,42,35,92,59,26,30.04,29.97,29.93,10,8,4,9,1,14,0.00,0,,306
2012-3-25,72,58,44,49,46,42,100,74,47,30.12,30.07,29.98,10,5,0,15,7,20,0.00,4,Fog,2
2012-3-26,86,69,51,54,49,44,83,53,23,30.00,29.79,29.60,10,9,6,37,21,49,0.00,1,,146
2012-3-27,76,59,41,54,36,25,67,43,19,29.95,29.78,29.60,10,10,10,31,14,41,0.00,0,,268
2012-3-28,74,55,36,38,35,33,79,51,23,30.04,29.97,29.88,10,10,10,16,7,21,0.00,2,,109
2012-3-29,71,61,50,55,49,38,89,70,51,29.86,29.77,29.69,10,9,3,24,9,30,0.05,5,Rain-Thunderstorm,125
2012-3-30,76,58,39,46,43,38,100,65,29,29.83,29.75,29.67,10,10,10,21,7,25,T,1,Thunderstorm,218
2012-3-31,88,65,42,46,40,34,93,54,15,29.73,29.65,29.59,10,10,6,20,6,25,0.00,0,,277